Erskine, United Kingdom
Current Conditions -  °F | °C
As of 1:20 AM on Tuesday 27 Jan 2015 (Local Time) from EGPF Reporting Station
Few Clouds Few Clouds  
Wind Chill: 37°   Ceiling: Unl
Heat Index: 43°   Visibility: 6mi
Dew Point: 39°   Wind: 10mph
Humidity: 87%   Direction: 260°W
Pressure: 30.24"   Gusts: NA
Location:  55.9°N, 4.47°W
Report Text: EGPF 270120Z AUTO 26009KT 9999 FEW022 06/04 Q1024
Loading
Personal Weather Stations






























Interactive Weather Map New forecast layout! Learn more

10-Day Weather Forecast

Advertisements
Track Severe Weather on mobile